sensor_id;sensor_type;location;lat;lon;timestamp;pressure;altitude;pressure_sealevel;temperature;humidity
60337;BME280;46978;50.288;28.624;2024-02-28T00:00:57;99705.11;;;1.04;92.76
60337;BME280;46978;50.288;28.624;2024-02-28T00:01:59;99704.22;;;1.02;93.03
60337;BME280;46978;50.288;28.624;2024-02-28T00:03:01;99704.25;;;1.04;92.83
60337;BME280;46978;50.288;28.624;2024-02-28T00:04:03;99702.47;;;1.01;92.66
60337;BME280;46978;50.288;28.624;2024-02-28T00:05:05;99703.33;;;1.02;92.72
60337;BME280;46978;50.288;28.624;2024-02-28T00:06:08;99703.33;;;1.02;92.69
60337;BME280;46978;50.288;28.624;2024-02-28T00:07:09;99699.06;;;1.01;92.95
60337;BME280;46978;50.288;28.624;2024-02-28T00:08:11;99704.98;;;1.00;93.10
60337;BME280;46978;50.288;28.624;2024-02-28T00:09:13;99704.09;;;0.98;93.28
60337;BME280;46978;50.288;28.624;2024-02-28T00:10:15;99695.55;;;0.97;93.34
60337;BME280;46978;50.288;28.624;2024-02-28T00:11:16;99693.84;;;0.96;93.33
60337;BME280;46978;50.288;28.624;2024-02-28T00:12:18;99703.17;;;0.96;92.99
60337;BME280;46978;50.288;28.624;2024-02-28T00:13:19;99698.91;;;0.95;93.10
60337;BME280;46978;50.288;28.624;2024-02-28T00:14:21;99701.42;;;0.93;93.02
60337;BME280;46978;50.288;28.624;2024-02-28T00:15:23;99701.42;;;0.93;93.60
60337;BME280;46978;50.288;28.624;2024-02-28T00:16:24;99698.83;;;0.92;93.31
60337;BME280;46978;50.288;28.624;2024-02-28T00:17:26;99691.98;;;0.91;93.48
60337;BME280;46978;50.288;28.624;2024-02-28T00:18:27;99696.23;;;0.90;93.53
60337;BME280;46978;50.288;28.624;2024-02-28T00:19:29;99697.90;;;0.89;93.52
60337;BME280;46978;50.288;28.624;2024-02-28T00:20:31;99698.70;;;0.87;93.40
60337;BME280;46978;50.288;28.624;2024-02-28T00:21:32;99697.81;;;0.86;93.48
60337;BME280;46978;50.288;28.624;2024-02-28T00:22:35;99696.11;;;0.85;93.52
60337;BME280;46978;50.288;28.624;2024-02-28T00:23:37;99697.78;;;0.85;93.62
60337;BME280;46978;50.288;28.624;2024-02-28T00:24:39;99698.58;;;0.82;93.62
60337;BME280;46978;50.288;28.624;2024-02-28T00:25:40;99695.10;;;0.80;93.46
60337;BME280;46978;50.288;28.624;2024-02-28T00:26:43;99692.55;;;0.80;93.87
60337;BME280;46978;50.288;28.624;2024-02-28T00:27:44;99689.18;;;0.81;93.91
60337;BME280;46978;50.288;28.624;2024-02-28T00:28:46;99698.55;;;0.81;93.94
60337;BME280;46978;50.288;28.624;2024-02-28T00:29:47;99693.39;;;0.79;93.84
60337;BME280;46978;50.288;28.624;2024-02-28T00:30:49;99694.20;;;0.78;93.84
60337;BME280;46978;50.288;28.624;2024-02-28T00:31:51;99691.66;;;0.78;94.02
60337;BME280;46978;50.288;28.624;2024-02-28T00:32:53;99696.72;;;0.77;94.01
60337;BME280;46978;50.288;28.624;2024-02-28T00:33:54;99690.72;;;0.75;93.93
60337;BME280;46978;50.288;28.624;2024-02-28T00:34:56;99691.53;;;0.74;93.85
60337;BME280;46978;50.288;28.624;2024-02-28T00:35:57;99691.48;;;0.72;93.84
60337;BME280;46978;50.288;28.624;2024-02-28T00:36:59;99685.56;;;0.73;94.18
60337;BME280;46978;50.288;28.624;2024-02-28T00:38:01;99687.23;;;0.73;94.35
60337;BME280;46978;50.288;28.624;2024-02-28T00:39:03;99689.79;;;0.73;94.13
60337;BME280;46978;50.288;28.624;2024-02-28T00:40:05;99687.20;;;0.71;93.86
60337;BME280;46978;50.288;28.624;2024-02-28T00:41:08;99690.63;;;0.71;94.23
60337;BME280;46978;50.288;28.624;2024-02-28T00:42:09;99686.30;;;0.69;94.18
60337;BME280;46978;50.288;28.624;2024-02-28T00:43:11;99691.41;;;0.69;94.37
60337;BME280;46978;50.288;28.624;2024-02-28T00:44:12;99682.05;;;0.69;94.03
60337;BME280;46978;50.288;28.624;2024-02-28T00:45:14;99687.16;;;0.69;94.25
60337;BME280;46978;50.288;28.624;2024-02-28T00:46:16;99690.63;;;0.71;94.21
60337;BME280;46978;50.288;28.624;2024-02-28T00:47:17;99680.42;;;0.71;94.27
60337;BME280;46978;50.288;28.624;2024-02-28T00:48:19;99685.53;;;0.71;94.09
60337;BME280;46978;50.288;28.624;2024-02-28T00:49:20;99683.78;;;0.70;94.46
60337;BME280;46978;50.288;28.624;2024-02-28T00:50:22;99687.16;;;0.69;94.36
60337;BME280;46978;50.288;28.624;2024-02-28T00:51:24;99685.48;;;0.70;94.26
60337;BME280;46978;50.288;28.624;2024-02-28T00:52:25;99678.59;;;0.67;94.13
60337;BME280;46978;50.288;28.624;2024-02-28T00:53:27;99684.52;;;0.66;94.13
60337;BME280;46978;50.288;28.624;2024-02-28T00:54:29;99679.37;;;0.65;94.13
60337;BME280;46978;50.288;28.624;2024-02-28T00:55:32;99687.03;;;0.65;94.27
60337;BME280;46978;50.288;28.624;2024-02-28T00:56:34;99681.03;;;0.63;94.25
60337;BME280;46978;50.288;28.624;2024-02-28T00:57:35;99675.92;;;0.63;94.44
60337;BME280;46978;50.288;28.624;2024-02-28T00:58:37;99679.25;;;0.60;94.40
60337;BME280;46978;50.288;28.624;2024-02-28T00:59:38;99678.39;;;0.60;94.52
60337;BME280;46978;50.288;28.624;2024-02-28T01:00:40;99674.09;;;0.59;94.31
60337;BME280;46978;50.288;28.624;2024-02-28T01:01:41;99675.02;;;0.61;94.47
60337;BME280;46978;50.288;28.624;2024-02-28T01:02:43;99677.53;;;0.59;94.59
60337;BME280;46978;50.288;28.624;2024-02-28T01:03:45;99674.17;;;0.62;94.73
60337;BME280;46978;50.288;28.624;2024-02-28T01:04:46;99671.63;;;0.62;94.44
60337;BME280;46978;50.288;28.624;2024-02-28T01:05:50;99673.36;;;0.63;94.44
60337;BME280;46978;50.288;28.624;2024-02-28T01:06:52;99672.47;;;0.61;94.47
60337;BME280;46978;50.288;28.624;2024-02-28T01:07:53;99669.88;;;0.59;94.37
60337;BME280;46978;50.288;28.624;2024-02-28T01:08:55;99673.28;;;0.60;94.47
60337;BME280;46978;50.288;28.624;2024-02-28T01:09:57;99670.73;;;0.60;94.51
60337;BME280;46978;50.288;28.624;2024-02-28T01:10:58;99670.73;;;0.60;94.42
60337;BME280;46978;50.288;28.624;2024-02-28T01:12:00;99665.63;;;0.60;94.60
60337;BME280;46978;50.288;28.624;2024-02-28T01:13:02;99664.77;;;0.59;94.49
60337;BME280;46978;50.288;28.624;2024-02-28T01:14:04;99672.42;;;0.59;94.28
60337;BME280;46978;50.288;28.624;2024-02-28T01:15:07;99664.77;;;0.59;94.52
60337;BME280;46978;50.288;28.624;2024-02-28T01:16:08;99667.28;;;0.58;94.58
60337;BME280;46978;50.288;28.624;2024-02-28T01:17:10;99667.28;;;0.58;94.54
60337;BME280;46978;50.288;28.624;2024-02-28T01:18:12;99665.50;;;0.55;94.56
60337;BME280;46978;50.288;28.624;2024-02-28T01:19:14;99665.53;;;0.57;94.54
60337;BME280;46978;50.288;28.624;2024-02-28T01:20:16;99663.80;;;0.56;94.53
60337;BME280;46978;50.288;28.624;2024-02-28T01:21:18;99665.50;;;0.55;94.44
60337;BME280;46978;50.288;28.624;2024-02-28T01:22:20;99663.75;;;0.54;94.45
60337;BME280;46978;50.288;28.624;2024-02-28T01:23:21;99662.05;;;0.53;94.70
60337;BME280;46978;50.288;28.624;2024-02-28T01:24:23;99662.00;;;0.51;94.74
60337;BME280;46978;50.288;28.624;2024-02-28T01:25:27;99664.60;;;0.53;94.61
60337;BME280;46978;50.288;28.624;2024-02-28T01:26:29;99661.97;;;0.50;94.51
60337;BME280;46978;50.288;28.624;2024-02-28T01:27:30;99660.19;;;0.47;94.48
60337;BME280;46978;50.288;28.624;2024-02-28T01:28:32;99657.59;;;0.46;94.79
60337;BME280;46978;50.288;28.624;2024-02-28T01:29:33;99656.73;;;0.45;94.91
60337;BME280;46978;50.288;28.624;2024-02-28T01:30:35;99660.14;;;0.46;95.24
60337;BME280;46978;50.288;28.624;2024-02-28T01:31:37;99656.73;;;0.45;95.10
60337;BME280;46978;50.288;28.624;2024-02-28T01:32:38;99656.78;;;0.47;95.21
60337;BME280;46978;50.288;28.624;2024-02-28T01:33:40;99666.95;;;0.45;95.09
60337;BME280;46978;50.288;28.624;2024-02-28T01:34:41;99662.66;;;0.44;95.12
60337;BME280;46978;50.288;28.624;2024-02-28T01:35:43;99657.50;;;0.43;95.05
60337;BME280;46978;50.288;28.624;2024-02-28T01:36:44;99660.06;;;0.43;95.35
60337;BME280;46978;50.288;28.624;2024-02-28T01:37:46;99661.75;;;0.42;95.29
60337;BME280;46978;50.288;28.624;2024-02-28T01:38:48;99662.61;;;0.43;95.40
60337;BME280;46978;50.288;28.624;2024-02-28T01:39:49;99657.46;;;0.41;95.33
60337;BME280;46978;50.288;28.624;2024-02-28T01:40:51;99660.78;;;0.39;95.15
60337;BME280;46978;50.288;28.624;2024-02-28T01:41:53;99659.93;;;0.38;95.65
60337;BME280;46978;50.288;28.624;2024-02-28T01:42:55;99654.78;;;0.37;95.56
60337;BME280;46978;50.288;28.624;2024-02-28T01:43:56;99658.15;;;0.35;95.47
60337;BME280;46978;50.288;28.624;2024-02-28T01:44:58;99658.98;;;0.34;95.58
60337;BME280;46978;50.288;28.624;2024-02-28T01:46:01;99660.66;;;0.34;95.70
60337;BME280;46978;50.288;28.624;2024-02-28T01:47:05;99658.10;;;0.34;95.97
60337;BME280;46978;50.288;28.624;2024-02-28T01:48:09;99661.50;;;0.33;95.68
60337;BME280;46978;50.288;28.624;2024-02-28T01:49:10;99663.20;;;0.34;95.81
60337;BME280;46978;50.288;28.624;2024-02-28T01:50:13;99661.50;;;0.33;95.82
60337;BME280;46978;50.288;28.624;2024-02-28T01:51:15;99661.50;;;0.33;95.76
60337;BME280;46978;50.288;28.624;2024-02-28T01:52:17;99662.31;;;0.32;95.81
60337;BME280;46978;50.288;28.624;2024-02-28T01:53:19;99670.83;;;0.32;95.79
60337;BME280;46978;50.288;28.624;2024-02-28T01:54:21;99663.13;;;0.31;95.80
60337;BME280;46978;50.288;28.624;2024-02-28T01:55:25;99663.13;;;0.31;95.86
60337;BME280;46978;50.288;28.624;2024-02-28T01:56:28;99661.41;;;0.30;95.90
60337;BME280;46978;50.288;28.624;2024-02-28T01:57:29;99669.88;;;0.29;95.99
60337;BME280;46978;50.288;28.624;2024-02-28T01:58:31;99664.73;;;0.27;96.13
60337;BME280;46978;50.288;28.624;2024-02-28T01:59:33;99673.25;;;0.28;96.08
60337;BME280;46978;50.288;28.624;2024-02-28T02:00:36;99666.44;;;0.27;96.07
60337;BME280;46978;50.288;28.624;2024-02-28T02:01:38;99667.25;;;0.26;95.96
60337;BME280;46978;50.288;28.624;2024-02-28T02:02:40;99669.80;;;0.26;95.93
60337;BME280;46978;50.288;28.624;2024-02-28T02:03:45;99674.05;;;0.25;95.87
60337;BME280;46978;50.288;28.624;2024-02-28T02:04:47;99674.00;;;0.24;95.86
60337;BME280;46978;50.288;28.624;2024-02-28T02:05:48;99670.52;;;0.22;96.03
60337;BME280;46978;50.288;28.624;2024-02-28T02:06:50;99674.73;;;0.20;96.12
60337;BME280;46978;50.288;28.624;2024-02-28T02:07:52;99678.09;;;0.18;96.28
60337;BME280;46978;50.288;28.624;2024-02-28T02:08:55;99667.03;;;0.18;96.47
60337;BME280;46978;50.288;28.624;2024-02-28T02:09:57;99668.73;;;0.17;96.63
60337;BME280;46978;50.288;28.624;2024-02-28T02:10:59;99668.73;;;0.17;96.57
60337;BME280;46978;50.288;28.624;2024-02-28T02:12:01;99677.19;;;0.16;96.66
60337;BME280;46978;50.288;28.624;2024-02-28T02:13:06;99674.64;;;0.16;96.71
60337;BME280;46978;50.288;28.624;2024-02-28T02:14:08;99678.00;;;0.15;96.67
60337;BME280;46978;50.288;28.624;2024-02-28T02:15:09;99678.84;;;0.14;96.95
60337;BME280;46978;50.288;28.624;2024-02-28T02:16:11;99678.84;;;0.14;96.77
60337;BME280;46978;50.288;28.624;2024-02-28T02:17:13;99678.80;;;0.13;96.82
60337;BME280;46978;50.288;28.624;2024-02-28T02:18:14;99673.66;;;0.11;96.73
60337;BME280;46978;50.288;28.624;2024-02-28T02:19:16;99676.97;;;0.09;96.64
60337;BME280;46978;50.288;28.624;2024-02-28T02:20:19;99680.28;;;0.06;96.65
60337;BME280;46978;50.288;28.624;2024-02-28T02:21:24;99674.38;;;0.07;96.85
60337;BME280;46978;50.288;28.624;2024-02-28T02:22:32;99672.63;;;0.06;97.13
60337;BME280;46978;50.288;28.624;2024-02-28T02:23:32;99675.19;;;0.06;97.32
60337;BME280;46978;50.288;28.624;2024-02-28T02:24:34;99675.14;;;0.05;97.11
60337;BME280;46978;50.288;28.624;2024-02-28T02:25:44;99674.28;;;0.04;97.42
60337;BME280;46978;50.288;28.624;2024-02-28T02:26:46;99675.94;;;0.02;97.50
60337;BME280;46978;50.288;28.624;2024-02-28T02:27:50;99673.30;;;-0.01;97.42
60337;BME280;46978;50.288;28.624;2024-02-28T02:28:52;99673.30;;;-0.01;97.42
60337;BME280;46978;50.288;28.624;2024-02-28T02:29:53;99674.11;;;-0.02;97.59
60337;BME280;46978;50.288;28.624;2024-02-28T02:30:55;99673.20;;;-0.04;97.73
60337;BME280;46978;50.288;28.624;2024-02-28T02:31:56;99669.80;;;-0.05;97.71
60337;BME280;46978;50.288;28.624;2024-02-28T02:32:58;99670.56;;;-0.07;97.81
60337;BME280;46978;50.288;28.624;2024-02-28T02:33:59;99671.38;;;-0.08;97.90
60337;BME280;46978;50.288;28.624;2024-02-28T02:35:01;99674.77;;;-0.09;97.89
60337;BME280;46978;50.288;28.624;2024-02-28T02:36:03;99673.83;;;-0.11;98.32
60337;BME280;46978;50.288;28.624;2024-02-28T02:37:05;99674.67;;;-0.12;98.22
60337;BME280;46978;50.288;28.624;2024-02-28T02:38:06;99675.48;;;-0.13;97.98
60337;BME280;46978;50.288;28.624;2024-02-28T02:39:08;99670.34;;;-0.15;98.00
60337;BME280;46978;50.288;28.624;2024-02-28T02:40:11;99678.80;;;-0.16;98.25
60337;BME280;46978;50.288;28.624;2024-02-28T02:41:13;99674.58;;;-0.15;98.67
60337;BME280;46978;50.288;28.624;2024-02-28T02:42:14;99676.25;;;-0.16;98.56
60337;BME280;46978;50.288;28.624;2024-02-28T02:43:16;99673.65;;;-0.17;98.66
60337;BME280;46978;50.288;28.624;2024-02-28T02:44:17;99672.80;;;-0.18;98.67
60337;BME280;46978;50.288;28.624;2024-02-28T02:45:19;99667.64;;;-0.20;98.67
60337;BME280;46978;50.288;28.624;2024-02-28T02:46:21;99673.60;;;-0.19;98.75
60337;BME280;46978;50.288;28.624;2024-02-28T02:47:22;99669.34;;;-0.20;98.69
60337;BME280;46978;50.288;28.624;2024-02-28T02:48:24;99674.48;;;-0.19;98.94
60337;BME280;46978;50.288;28.624;2024-02-28T02:49:25;99675.25;;;-0.21;98.97
60337;BME280;46978;50.288;28.624;2024-02-28T02:50:27;99677.04;;;-0.19;99.37
60337;BME280;46978;50.288;28.624;2024-02-28T02:51:28;99679.59;;;-0.19;99.02
60337;BME280;46978;50.288;28.624;2024-02-28T02:52:30;99672.75;;;-0.20;98.96
60337;BME280;46978;50.288;28.624;2024-02-28T02:53:31;99671.89;;;-0.20;98.87
60337;BME280;46978;50.288;28.624;2024-02-28T02:54:33;99670.15;;;-0.21;98.90
60337;BME280;46978;50.288;28.624;2024-02-28T02:55:34;99675.20;;;-0.23;99.09
60337;BME280;46978;50.288;28.624;2024-02-28T02:56:37;99674.35;;;-0.23;99.09
60337;BME280;46978;50.288;28.624;2024-02-28T02:57:39;99676.86;;;-0.25;98.89
60337;BME280;46978;50.288;28.624;2024-02-28T02:58:41;99669.20;;;-0.25;99.16
60337;BME280;46978;50.288;28.624;2024-02-28T02:59:42;99674.26;;;-0.26;99.33
60337;BME280;46978;50.288;28.624;2024-02-28T03:00:44;99675.06;;;-0.27;99.42
60337;BME280;46978;50.288;28.624;2024-02-28T03:01:45;99669.11;;;-0.28;99.57
60337;BME280;46978;50.288;28.624;2024-02-28T03:02:47;99679.31;;;-0.28;99.76
60337;BME280;46978;50.288;28.624;2024-02-28T03:03:49;99677.62;;;-0.27;99.55
60337;BME280;46978;50.288;28.624;2024-02-28T03:04:50;99675.88;;;-0.28;99.80
60337;BME280;46978;50.288;28.624;2024-02-28T03:05:52;99667.37;;;-0.29;99.92
60337;BME280;46978;50.288;28.624;2024-02-28T03:06:53;99666.52;;;-0.29;99.71
60337;BME280;46978;50.288;28.624;2024-02-28T03:07:55;99669.06;;;-0.29;99.60
60337;BME280;46978;50.288;28.624;2024-02-28T03:08:56;99673.32;;;-0.28;99.82
60337;BME280;46978;50.288;28.624;2024-02-28T03:09:58;99674.16;;;-0.29;99.94
60337;BME280;46978;50.288;28.624;2024-02-28T03:11:00;99669.06;;;-0.29;99.77
60337;BME280;46978;50.288;28.624;2024-02-28T03:12:01;99669.88;;;-0.30;99.72
60337;BME280;46978;50.288;28.624;2024-02-28T03:13:03;99669.02;;;-0.31;99.76
60337;BME280;46978;50.288;28.624;2024-02-28T03:14:05;99664.73;;;-0.32;99.72
60337;BME280;46978;50.288;28.624;2024-02-28T03:15:06;99667.19;;;-0.35;99.60
60337;BME280;46978;50.288;28.624;2024-02-28T03:16:08;99662.94;;;-0.34;100.00
60337;BME280;46978;50.288;28.624;2024-02-28T03:17:10;99662.94;;;-0.34;100.00
60337;BME280;46978;50.288;28.624;2024-02-28T03:18:11;99674.02;;;-0.34;100.00
60337;BME280;46978;50.288;28.624;2024-02-28T03:19:13;99662.08;;;-0.35;100.00
60337;BME280;46978;50.288;28.624;2024-02-28T03:20:15;99667.98;;;-0.36;99.93
60337;BME280;46978;50.288;28.624;2024-02-28T03:21:17;99665.39;;;-0.38;100.00
60337;BME280;46978;50.288;28.624;2024-02-28T03:22:18;99661.98;;;-0.38;100.00
60337;BME280;46978;50.288;28.624;2024-02-28T03:23:20;99667.04;;;-0.40;100.00
60337;BME280;46978;50.288;28.624;2024-02-28T03:24:21;99662.75;;;-0.41;100.00
60337;BME280;46978;50.288;28.624;2024-02-28T03:25:25;99667.04;;;-0.40;100.00
60337;BME280;46978;50.288;28.624;2024-02-28T03:26:26;99658.48;;;-0.42;100.00
60337;BME280;46978;50.288;28.624;2024-02-28T03:27:28;99658.48;;;-0.42;100.00
60337;BME280;46978;50.288;28.624;2024-02-28T03:28:29;99662.70;;;-0.42;100.00
60337;BME280;46978;50.288;28.624;2024-02-28T03:29:31;99658.48;;;-0.42;100.00
60337;BME280;46978;50.288;28.624;2024-02-28T03:30:32;99666.95;;;-0.43;100.00
60337;BME280;46978;50.288;28.624;2024-02-28T03:31:34;99663.45;;;-0.46;100.00
60337;BME280;46978;50.288;28.624;2024-02-28T03:32:35;99664.25;;;-0.47;100.00
60337;BME280;46978;50.288;28.624;2024-02-28T03:33:37;99672.71;;;-0.48;100.00
60337;BME280;46978;50.288;28.624;2024-02-28T03:34:39;99664.20;;;-0.49;100.00
60337;BME280;46978;50.288;28.624;2024-02-28T03:35:40;99664.16;;;-0.50;100.00
60337;BME280;46978;50.288;28.624;2024-02-28T03:36:42;99664.97;;;-0.51;100.00
60337;BME280;46978;50.288;28.624;2024-02-28T03:37:44;99664.92;;;-0.53;100.00
60337;BME280;46978;50.288;28.624;2024-02-28T03:38:45;99667.42;;;-0.55;100.00
60337;BME280;46978;50.288;28.624;2024-02-28T03:39:47;99658.87;;;-0.57;100.00
60337;BME280;46978;50.288;28.624;2024-02-28T03:40:48;99660.56;;;-0.57;100.00
60337;BME280;46978;50.288;28.624;2024-02-28T03:41:50;99664.77;;;-0.58;100.00
60337;BME280;46978;50.288;28.624;2024-02-28T03:42:52;99663.11;;;-0.57;100.00
60337;BME280;46978;50.288;28.624;2024-02-28T03:43:53;99664.72;;;-0.59;100.00
60337;BME280;46978;50.288;28.624;2024-02-28T03:44:55;99655.32;;;-0.62;100.00
60337;BME280;46978;50.288;28.624;2024-02-28T03:45:56;99662.97;;;-0.62;100.00
60337;BME280;46978;50.288;28.624;2024-02-28T03:46:58;99663.77;;;-0.63;100.00
60337;BME280;46978;50.288;28.624;2024-02-28T03:48:00;99665.47;;;-0.63;100.00
60337;BME280;46978;50.288;28.624;2024-02-28T03:49:01;99665.47;;;-0.63;100.00
60337;BME280;46978;50.288;28.624;2024-02-28T03:50:05;99659.48;;;-0.64;100.00
60337;BME280;46978;50.288;28.624;2024-02-28T03:51:07;99657.77;;;-0.65;100.00
60337;BME280;46978;50.288;28.624;2024-02-28T03:52:08;99668.77;;;-0.66;100.00
60337;BME280;46978;50.288;28.624;2024-02-28T03:53:10;99665.32;;;-0.68;100.00
60337;BME280;46978;50.288;28.624;2024-02-28T03:54:11;99669.58;;;-0.67;100.00
60337;BME280;46978;50.288;28.624;2024-02-28T03:55:13;99666.13;;;-0.69;100.00
60337;BME280;46978;50.288;28.624;2024-02-28T03:56:25;99661.88;;;-0.68;100.00
60337;BME280;46978;50.288;28.624;2024-02-28T03:57:27;99662.72;;;-0.69;100.00
60337;BME280;46978;50.288;28.624;2024-02-28T03:58:48;99661.84;;;-0.70;100.00
60337;BME280;46978;50.288;28.624;2024-02-28T03:59:50;99660.98;;;-0.70;100.00
60337;BME280;46978;50.288;28.624;2024-02-28T04:00:51;99654.19;;;-0.70;100.00
60337;BME280;46978;50.288;28.624;2024-02-28T04:01:53;99654.19;;;-0.70;100.00
60337;BME280;46978;50.288;28.624;2024-02-28T04:02:55;99655.89;;;-0.70;100.00
60337;BME280;46978;50.288;28.624;2024-02-28T04:03:56;99656.73;;;-0.70;100.00
60337;BME280;46978;50.288;28.624;2024-02-28T04:04:58;99655.08;;;-0.69;100.00
60337;BME280;46978;50.288;28.624;2024-02-28T04:05:59;99660.98;;;-0.70;100.00
60337;BME280;46978;50.288;28.624;2024-02-28T04:07:01;99648.19;;;-0.72;100.00
60337;BME280;46978;50.288;28.624;2024-02-28T04:08:03;99660.94;;;-0.72;100.00
60337;BME280;46978;50.288;28.624;2024-02-28T04:09:05;99656.64;;;-0.73;100.00
60337;BME280;46978;50.288;28.624;2024-02-28T04:10:08;99654.93;;;-0.74;100.00
60337;BME280;46978;50.288;28.624;2024-02-28T04:11:10;99656.59;;;-0.75;100.00
60337;BME280;46978;50.288;28.624;2024-02-28T04:12:11;99658.23;;;-0.77;100.00
60337;BME280;46978;50.288;28.624;2024-02-28T04:13:13;99664.14;;;-0.78;100.00
60337;BME280;46978;50.288;28.624;2024-02-28T04:14:14;99658.94;;;-0.81;100.00
60337;BME280;46978;50.288;28.624;2024-02-28T04:15:16;99657.23;;;-0.82;100.00
60337;BME280;46978;50.288;28.624;2024-02-28T04:16:17;99657.23;;;-0.82;100.00
60337;BME280;46978;50.288;28.624;2024-02-28T04:17:19;99661.44;;;-0.82;100.00
60337;BME280;46978;50.288;28.624;2024-02-28T04:18:20;99659.73;;;-0.83;100.00
60337;BME280;46978;50.288;28.624;2024-02-28T04:19:22;99655.54;;;-0.81;100.00
60337;BME280;46978;50.288;28.624;2024-02-28T04:20:24;99661.44;;;-0.82;100.00
60337;BME280;46978;50.288;28.624;2024-02-28T04:21:25;99652.99;;;-0.81;100.00
60337;BME280;46978;50.288;28.624;2024-02-28T04:22:27;99657.33;;;-0.79;100.00
60337;BME280;46978;50.288;28.624;2024-02-28T04:23:28;99661.64;;;-0.76;100.00
60337;BME280;46978;50.288;28.624;2024-02-28T04:24:30;99664.19;;;-0.76;100.00
60337;BME280;46978;50.288;28.624;2024-02-28T04:25:33;99664.19;;;-0.76;100.00
60337;BME280;46978;50.288;28.624;2024-02-28T04:26:35;99663.33;;;-0.77;100.00
60337;BME280;46978;50.288;28.624;2024-02-28T04:27:37;99666.73;;;-0.76;100.00
60337;BME280;46978;50.288;28.624;2024-02-28T04:28:39;99665.87;;;-0.77;100.00
60337;BME280;46978;50.288;28.624;2024-02-28T04:29:40;99662.53;;;-0.76;100.00
60337;BME280;46978;50.288;28.624;2024-02-28T04:30:42;99660.83;;;-0.75;100.00
60337;BME280;46978;50.288;28.624;2024-02-28T04:31:43;99665.93;;;-0.75;100.00
60337;BME280;46978;50.288;28.624;2024-02-28T04:32:45;99667.67;;;-0.74;100.00
60337;BME280;46978;50.288;28.624;2024-02-28T04:33:46;99664.23;;;-0.75;100.00
60337;BME280;46978;50.288;28.624;2024-02-28T04:34:48;99664.19;;;-0.76;100.00
60337;BME280;46978;50.288;28.624;2024-02-28T04:35:49;99668.48;;;-0.75;100.00
60337;BME280;46978;50.288;28.624;2024-02-28T04:36:51;99673.58;;;-0.75;100.00
60337;BME280;46978;50.288;28.624;2024-02-28T04:37:52;99667.63;;;-0.76;100.00
60337;BME280;46978;50.288;28.624;2024-02-28T04:38:54;99666.69;;;-0.78;100.00
60337;BME280;46978;50.288;28.624;2024-02-28T04:39:55;99669.23;;;-0.78;100.00
60337;BME280;46978;50.288;28.624;2024-02-28T04:40:57;99667.58;;;-0.77;100.00
60337;BME280;46978;50.288;28.624;2024-02-28T04:41:59;99673.52;;;-0.77;100.00
60337;BME280;46978;50.288;28.624;2024-02-28T04:43:00;99670.12;;;-0.77;100.00
60337;BME280;46978;50.288;28.624;2024-02-28T04:44:02;99665.02;;;-0.77;100.00
60337;BME280;46978;50.288;28.624;2024-02-28T04:45:04;99669.23;;;-0.78;100.00
60337;BME280;46978;50.288;28.624;2024-02-28T04:46:06;99674.33;;;-0.78;100.00
60337;BME280;46978;50.288;28.624;2024-02-28T04:47:07;99670.92;;;-0.78;100.00
60337;BME280;46978;50.288;28.624;2024-02-28T04:48:09;99672.63;;;-0.79;100.00
60337;BME280;46978;50.288;28.624;2024-02-28T04:49:10;99674.33;;;-0.78;100.00
60337;BME280;46978;50.288;28.624;2024-02-28T04:50:12;99674.28;;;-0.79;100.00
60337;BME280;46978;50.288;28.624;2024-02-28T04:51:17;99673.42;;;-0.80;100.00
60337;BME280;46978;50.288;28.624;2024-02-28T04:52:18;99678.47;;;-0.81;100.00
60337;BME280;46978;50.288;28.624;2024-02-28T04:53:20;99678.47;;;-0.81;100.00
60337;BME280;46978;50.288;28.624;2024-02-28T04:54:21;99677.62;;;-0.82;100.00
60337;BME280;46978;50.288;28.624;2024-02-28T04:55:25;99675.88;;;-0.83;100.00
60337;BME280;46978;50.288;28.624;2024-02-28T04:56:26;99675.02;;;-0.83;100.00
60337;BME280;46978;50.288;28.624;2024-02-28T04:57:28;99678.38;;;-0.84;100.00
60337;BME280;46978;50.288;28.624;2024-02-28T04:58:30;99678.32;;;-0.86;100.00
60337;BME280;46978;50.288;28.624;2024-02-28T04:59:31;99683.42;;;-0.86;100.00
60337;BME280;46978;50.288;28.624;2024-02-28T05:00:33;99679.13;;;-0.87;100.00
60337;BME280;46978;50.288;28.624;2024-02-28T05:01:35;99677.47;;;-0.86;100.00
60337;BME280;46978;50.288;28.624;2024-02-28T05:02:36;99682.56;;;-0.86;100.00
60337;BME280;46978;50.288;28.624;2024-02-28T05:03:38;99680.02;;;-0.86;100.00
60337;BME280;46978;50.288;28.624;2024-02-28T05:04:39;99685.97;;;-0.86;100.00
60337;BME280;46978;50.288;28.624;2024-02-28T05:05:41;99685.97;;;-0.86;100.00
60337;BME280;46978;50.288;28.624;2024-02-28T05:06:43;99677.47;;;-0.86;100.00
60337;BME280;46978;50.288;28.624;2024-02-28T05:07:44;99685.20;;;-0.83;100.00
60337;BME280;46978;50.288;28.624;2024-02-28T05:08:46;99682.66;;;-0.83;100.00
60337;BME280;46978;50.288;28.624;2024-02-28T05:09:47;99679.28;;;-0.82;100.00
60337;BME280;46978;50.288;28.624;2024-02-28T05:10:49;99679.28;;;-0.82;100.00
60337;BME280;46978;50.288;28.624;2024-02-28T05:11:51;99683.56;;;-0.81;100.00
60337;BME280;46978;50.288;28.624;2024-02-28T05:12:53;99680.21;;;-0.80;100.00
60337;BME280;46978;50.288;28.624;2024-02-28T05:13:54;99687.02;;;-0.79;100.00
60337;BME280;46978;50.288;28.624;2024-02-28T05:14:56;99685.41;;;-0.77;100.00
60337;BME280;46978;50.288;28.624;2024-02-28T05:15:57;99682.08;;;-0.75;100.00
60337;BME280;46978;50.288;28.624;2024-02-28T05:16:59;99678.72;;;-0.74;100.00
60337;BME280;46978;50.288;28.624;2024-02-28T05:18:01;99683.06;;;-0.71;100.00
60337;BME280;46978;50.288;28.624;2024-02-28T05:19:02;99684.77;;;-0.70;100.00
60337;BME280;46978;50.288;28.624;2024-02-28T05:20:05;99684.87;;;-0.67;100.00
60337;BME280;46978;50.288;28.624;2024-02-28T05:21:06;99690.86;;;-0.66;100.00
60337;BME280;46978;50.288;28.624;2024-02-28T05:22:08;99691.76;;;-0.64;100.00
60337;BME280;46978;50.288;28.624;2024-02-28T05:23:10;99690.06;;;-0.64;100.00
60337;BME280;46978;50.288;28.624;2024-02-28T05:24:12;99689.26;;;-0.63;100.00